Time;durP1;ratioP1;P1;durP2;ratioP2;P2;SDS_P1;SDS_P2;PMS_P1;PMS_P2;Temp;Humidity;BMP_temperature;BMP_pressure;BME280_temperature;BME280_humidity;BME280_pressure;Samples;Min_cycle;Max_cycle;Signal;HPM_P1;HPM_P2
2023/10/05 00:03:33;;;;;;;13.52;7.90;;;;;;;17.95;57.74;95784.41;5085970;28;20066;-76
2023/10/05 00:06:13;;;;;;;11.50;7.80;;;;;;;17.91;57.68;95772.69;5085859;28;20028;-76
2023/10/05 00:08:47;;;;;;;13.23;7.97;;;;;;;17.93;57.99;95779.31;5085466;28;20118;-76
2023/10/05 00:11:22;;;;;;;13.00;7.15;;;;;;;17.91;58.24;95784.59;5085565;28;20816;-76
2023/10/05 00:13:49;;;;;;;9.45;6.88;;;;;;;17.83;58.31;95779.78;5085105;28;20051;-77
2023/10/05 00:16:20;;;;;;;11.23;7.57;;;;;;;17.82;58.25;95790.16;5067571;28;20028;-77
2023/10/05 00:18:45;;;;;;;12.57;7.80;;;;;;;17.82;58.29;95787.38;5066937;28;20039;-77
2023/10/05 00:21:11;;;;;;;10.98;7.68;;;;;;;17.79;58.25;95774.41;5087091;28;20028;-77
2023/10/05 00:23:37;;;;;;;10.38;7.65;;;;;;;17.75;58.67;95777.31;5089286;28;20604;-76
2023/10/05 00:26:05;;;;;;;11.52;7.80;;;;;;;17.74;58.59;95775.78;5088918;28;20047;-77
2023/10/05 00:28:31;;;;;;;14.30;8.05;;;;;;;17.66;58.83;95757.84;5089762;28;20489;-77
2023/10/05 00:30:57;;;;;;;12.93;7.43;;;;;;;17.69;58.62;95776.38;5089997;28;20024;-77
2023/10/05 00:33:22;;;;;;;11.30;7.47;;;;;;;17.69;58.62;95768.03;5090072;28;20025;-77
2023/10/05 00:35:49;;;;;;;10.05;6.78;;;;;;;17.68;58.79;95772.06;5088971;28;20559;-77
2023/10/05 00:38:18;;;;;;;12.18;7.80;;;;;;;17.61;58.78;95766.03;5090143;28;20024;-77
2023/10/05 00:40:57;;;;;;;10.57;7.53;;;;;;;17.59;58.75;95777.59;5089431;28;20021;-77
2023/10/05 00:45:49;;;;;;;14.00;7.00;;;;;;;17.60;58.73;95765.25;5089880;28;20134;-77
2023/10/05 00:48:28;;;;;;;10.05;7.80;;;;;;;17.62;58.88;95764.78;5070473;28;20077;-77
2023/10/05 00:51:06;;;;;;;11.85;7.15;;;;;;;17.58;58.99;95776.06;5073583;28;20120;-76
2023/10/05 00:53:32;;;;;;;10.85;7.80;;;;;;;17.53;58.98;95768.34;5071678;28;20024;-77
2023/10/05 00:56:12;;;;;;;12.10;7.82;;;;;;;17.50;58.88;95778.38;5070730;28;20028;-77
2023/10/05 00:58:46;;;;;;;13.65;7.47;;;;;;;17.50;59.25;95780.41;5088969;28;20482;-76
2023/10/05 01:01:15;;;;;;;12.05;7.15;;;;;;;17.51;59.12;95777.16;5071212;28;20073;-76
2023/10/05 01:04:00;;;;;;;10.63;7.10;;;;;;;17.52;59.00;95772.34;5089442;28;20085;-77
2023/10/05 01:06:32;;;;;;;10.77;7.70;;;;;;;17.45;59.14;95776.22;5072455;28;20043;-77
2023/10/05 01:09:04;;;;;;;13.38;7.75;;;;;;;17.39;59.38;95769.72;5088725;28;20394;-76
2023/10/05 01:11:54;;;;;;;13.30;7.80;;;;;;;17.40;59.19;95765.72;5088495;28;20106;-76
2023/10/05 01:14:16;;;;;;;12.63;7.13;;;;;;;17.36;59.08;95756.75;5071806;28;20502;-75
2023/10/05 01:16:43;;;;;;;10.02;6.93;;;;;;;17.43;59.26;95767.56;5088878;28;20521;-76
2023/10/05 01:19:09;;;;;;;16.02;7.10;;;;;;;17.31;59.30;95757.34;5087975;28;20020;-76
2023/10/05 01:21:35;;;;;;;10.55;7.47;;;;;;;17.38;59.15;95761.84;5088225;28;20016;-76
2023/10/05 01:24:02;;;;;;;12.40;7.25;;;;;;;17.37;59.24;95766.63;5070253;28;20095;-76
2023/10/05 01:26:28;;;;;;;10.65;6.68;;;;;;;17.33;59.25;95756.91;5087857;28;20052;-76
2023/10/05 01:28:53;;;;;;;12.07;7.10;;;;;;;17.35;59.35;95760.75;5088688;28;20060;-76
2023/10/05 01:31:20;;;;;;;11.70;6.40;;;;;;;17.34;59.16;95752.88;5087660;28;20028;-76
2023/10/05 01:33:46;;;;;;;12.80;6.97;;;;;;;17.36;59.01;95756.75;5087108;28;20028;-76
2023/10/05 01:36:15;;;;;;;9.23;5.88;;;;;;;17.31;58.91;95749.00;5087247;28;20039;-76
2023/10/05 01:38:41;;;;;;;15.93;6.85;;;;;;;17.29;58.83;95751.47;5070465;28;20030;-76
2023/10/05 01:41:07;;;;;;;9.63;6.68;;;;;;;17.31;58.70;95749.00;5087623;28;20024;-75
2023/10/05 01:43:36;;;;;;;10.20;6.82;;;;;;;17.25;58.69;95751.63;5087652;28;20024;-76
2023/10/05 01:46:04;;;;;;;10.73;5.95;;;;;;;17.29;58.72;95754.25;5087969;28;20107;-76
2023/10/05 01:48:31;;;;;;;11.82;6.10;;;;;;;17.23;58.61;95748.53;5069844;28;20020;-76
2023/10/05 01:51:07;;;;;;;10.68;6.15;;;;;;;17.24;58.87;95749.31;5087979;28;20458;-76
2023/10/05 01:53:33;;;;;;;15.77;6.47;;;;;;;17.28;58.50;95754.72;5070012;28;20497;-76
2023/10/05 01:55:59;;;;;;;12.90;6.93;;;;;;;17.23;58.67;95754.09;5088698;28;20110;-75
2023/10/05 01:58:27;;;;;;;9.23;5.53;;;;;;;17.24;58.65;95754.88;5087197;28;20020;-77
2023/10/05 02:00:54;;;;;;;10.23;6.35;;;;;;;17.22;58.73;95758.13;5087184;28;20051;-75
2023/10/05 02:03:23;;;;;;;11.27;6.22;;;;;;;17.14;58.73;95754.06;5087923;28;20020;-77
2023/10/05 02:05:50;;;;;;;10.50;6.00;;;;;;;17.12;59.09;95761.34;5069296;28;20020;-76
2023/10/05 02:08:15;;;;;;;13.55;6.18;;;;;;;17.09;59.01;95754.72;5069735;28;20050;-77
2023/10/05 02:10:46;;;;;;;8.77;5.85;;;;;;;17.11;58.85;95757.03;5086652;28;20051;-76
2023/10/05 02:13:12;;;;;;;11.23;6.18;;;;;;;17.10;58.62;95753.47;5070855;28;20070;-75
2023/10/05 02:15:39;;;;;;;11.25;6.68;;;;;;;17.09;58.88;95756.69;5086457;28;20458;-77
2023/10/05 02:18:17;;;;;;;13.57;7.00;;;;;;;17.13;58.71;95760.88;5069340;28;20054;-77
2023/10/05 02:20:45;;;;;;;9.25;5.93;;;;;;;17.15;58.92;95757.66;5087317;28;20031;-76
2023/10/05 02:23:26;;;;;;;7.78;5.95;;;;;;;17.17;58.65;95760.72;5086709;28;20032;-76
2023/10/05 02:26:10;;;;;;;10.48;6.53;;;;;;;17.12;58.68;95764.88;5071457;28;20028;-76
2023/10/05 02:28:39;;;;;;;9.27;6.45;;;;;;;17.12;58.78;95764.13;5086827;28;20632;-76
2023/10/05 02:31:12;;;;;;;10.85;6.15;;;;;;;17.14;58.53;95761.63;5086886;28;20096;-77
2023/10/05 02:33:38;;;;;;;11.02;6.40;;;;;;;17.10;58.66;95761.03;5070033;28;20024;-76
2023/10/05 02:39:08;;;;;;;9.45;6.03;;;;;;;17.07;58.91;95768.25;5024940;28;20135;-77
2023/10/05 02:41:39;;;;;;;8.77;5.65;;;;;;;17.10;58.71;95763.81;5023807;28;20029;-76
2023/10/05 02:44:28;;;;;;;9.70;5.88;;;;;;;17.10;58.55;95775.69;5023834;28;20038;-76
2023/10/05 02:46:53;;;;;;;11.07;6.18;;;;;;;17.05;58.57;95759.63;5010506;28;20096;-76
2023/10/05 02:49:19;;;;;;;9.13;5.97;;;;;;;16.91;58.47;95743.53;5023516;28;20084;-77
2023/10/05 02:51:55;;;;;;;9.02;6.35;;;;;;;17.07;58.53;95768.25;5024431;28;20083;-76
2023/10/05 02:54:30;;;;;;;9.63;5.95;;;;;;;17.08;58.31;95769.81;5008211;28;20033;-76
2023/10/05 02:56:56;;;;;;;11.38;5.80;;;;;;;17.09;58.38;95778.91;5008454;28;20099;-76
2023/10/05 02:59:26;;;;;;;11.23;5.88;;;;;;;17.05;58.63;95778.31;5007215;28;20025;-76
2023/10/05 03:01:54;;;;;;;10.13;6.38;;;;;;;16.98;58.83;95763.47;5023290;28;20068;-76
2023/10/05 03:04:21;;;;;;;12.88;6.72;;;;;;;17.01;58.93;95778.44;5024015;28;20049;-76
2023/10/05 03:06:52;;;;;;;10.75;6.25;;;;;;;16.96;58.78;95774.25;5023442;28;20196;-76
2023/10/05 03:09:18;;;;;;;12.30;6.78;;;;;;;16.95;58.92;95771.94;5040103;28;20036;-76
2023/10/05 03:11:46;;;;;;;10.13;6.90;;;;;;;16.93;58.87;95768.84;5084157;28;20494;-76
2023/10/05 03:14:14;;;;;;;11.95;7.13;;;;;;;16.90;58.72;95772.53;5086123;28;20052;-76
2023/10/05 03:16:48;;;;;;;13.48;7.05;;;;;;;16.84;58.96;95774.38;5067985;28;20612;-77
2023/10/05 03:19:21;;;;;;;12.50;7.22;;;;;;;16.78;58.99;95768.66;5085507;28;20092;-76
2023/10/05 03:21:49;;;;;;;11.55;7.68;;;;;;;16.72;59.00;95773.25;5069111;28;20024;-77
2023/10/05 03:24:14;;;;;;;13.13;7.85;;;;;;;16.58;59.01;95748.81;5085057;28;20403;-76
2023/10/05 03:26:41;;;;;;;11.88;8.77;;;;;;;16.67;59.14;95773.81;5086432;28;20081;-76
2023/10/05 03:29:12;;;;;;;17.05;8.93;;;;;;;16.58;59.65;95771.03;5083784;28;20020;-76
2023/10/05 03:31:43;;;;;;;12.82;8.95;;;;;;;16.62;59.36;95777.97;5085753;28;20033;-77
2023/10/05 03:34:12;;;;;;;16.77;9.57;;;;;;;16.46;59.55;95762.34;5068405;28;20107;-77
2023/10/05 03:36:37;;;;;;;15.18;9.10;;;;;;;16.50;59.61;95778.81;5085302;28;20035;-76
2023/10/05 03:39:06;;;;;;;17.23;9.00;;;;;;;16.35;59.74;95761.19;5085773;28;20103;-76
2023/10/05 03:41:32;;;;;;;19.38;9.70;;;;;;;16.44;59.83;95780.66;5085095;28;20051;-76
2023/10/05 03:44:02;;;;;;;20.67;9.50;;;;;;;16.44;60.17;95784.19;5086531;28;20054;-76
2023/10/05 03:46:28;;;;;;;18.13;9.15;;;;;;;16.40;60.27;95788.34;5085305;28;20027;-77
2023/10/05 03:48:59;;;;;;;17.67;9.50;;;;;;;16.38;60.09;95783.25;5086096;28;20024;-75
2023/10/05 03:51:25;;;;;;;23.75;11.30;;;;;;;16.32;60.30;95776.75;5086259;28;20102;-77
2023/10/05 03:53:51;;;;;;;28.42;11.05;;;;;;;16.30;60.28;95779.19;5085517;28;20063;-77
2023/10/05 03:56:20;;;;;;;29.23;12.57;;;;;;;16.30;60.34;95778.44;5087196;28;20128;-76
2023/10/05 03:58:46;;;;;;;23.13;11.25;;;;;;;16.28;60.39;95783.66;5089304;28;20051;-76
2023/10/05 04:01:12;;;;;;;20.08;10.63;;;;;;;16.25;60.55;95785.34;5090196;28;20024;-76
2023/10/05 04:03:38;;;;;;;19.27;8.95;;;;;;;16.22;60.15;95783.47;5071134;28;20023;-76
2023/10/05 04:06:28;;;;;;;15.63;8.73;;;;;;;16.17;59.98;95776.53;5071438;28;20462;-76
2023/10/05 04:08:59;;;;;;;18.77;10.00;;;;;;;16.15;60.08;95787.28;5088465;28;20088;-76
2023/10/05 04:11:27;;;;;;;25.02;11.68;;;;;;;16.11;60.26;95792.16;5071706;28;20058;-75
2023/10/05 04:13:54;;;;;;;19.52;11.20;;;;;;;16.06;60.53;95792.78;5089849;28;20591;-76
2023/10/05 04:16:22;;;;;;;20.98;10.57;;;;;;;16.03;60.36;95788.13;5088465;28;20493;-78
2023/10/05 04:18:52;;;;;;;15.45;9.20;;;;;;;16.04;59.62;95800.00;5055921;28;20110;-77
2023/10/05 04:21:23;;;;;;;16.17;7.57;;;;;;;15.98;59.87;95797.03;5071654;28;20047;-75
2023/10/05 04:23:52;;;;;;;14.60;8.60;;;;;;;15.97;59.96;95800.25;5089346;28;20032;-76
2023/10/05 04:26:21;;;;;;;16.02;8.45;;;;;;;15.92;60.26;95798.81;5071502;28;20019;-75
2023/10/05 04:28:54;;;;;;;19.40;9.20;;;;;;;15.87;60.30;95793.84;5088645;28;20486;-75
2023/10/05 04:31:25;;;;;;;17.92;9.45;;;;;;;15.87;60.47;95805.72;5072508;28;20116;-75
2023/10/05 04:33:55;;;;;;;25.48;9.93;;;;;;;15.90;60.75;95804.06;5088452;28;20536;-75
2023/10/05 04:36:25;;;;;;;21.63;9.50;;;;;;;15.87;60.63;95802.94;5070912;28;20024;-74
2023/10/05 04:38:53;;;;;;;18.73;10.00;;;;;;;15.83;60.69;95809.88;5089205;28;20035;-75
2023/10/05 04:41:28;;;;;;;24.17;9.38;;;;;;;15.81;60.75;95813.06;5088285;28;20107;-76
2023/10/05 04:43:56;;;;;;;20.35;9.50;;;;;;;15.78;60.89;95811.22;5071868;28;20031;-75
2023/10/05 04:46:22;;;;;;;20.50;9.23;;;;;;;15.78;60.98;95818.75;5088000;28;20055;-77
2023/10/05 04:49:07;;;;;;;19.15;10.32;;;;;;;15.81;60.77;95823.38;5071210;28;20545;-75
2023/10/05 04:51:35;;;;;;;18.02;9.00;;;;;;;15.72;61.00;95815.78;5088340;28;20482;-75
2023/10/05 04:54:01;;;;;;;16.05;8.68;;;;;;;15.73;60.85;95825.63;5088902;28;20471;-76
2023/10/05 04:57:22;;;;;;;16.02;7.93;;;;;;;15.76;60.05;95821.97;5088574;28;20107;-76
2023/10/05 05:04:52;;;;;;;10.48;6.55;;;;;;;15.72;59.65;95824.09;5071078;28;20094;-74
2023/10/05 05:07:21;;;;;;;10.82;6.40;;;;;;;15.71;59.21;95821.75;5087879;28;20028;-74
2023/10/05 05:09:47;;;;;;;19.85;7.15;;;;;;;15.64;59.40;95820.78;5089006;28;20221;-75
2023/10/05 05:12:16;;;;;;;12.43;6.63;;;;;;;15.73;59.06;95828.41;5087411;28;20026;-75
2023/10/05 05:14:44;;;;;;;13.95;6.25;;;;;;;15.75;58.73;95831.50;5087487;28;20067;-75
2023/10/05 05:17:23;;;;;;;11.15;6.00;;;;;;;15.76;58.76;95837.81;5087704;28;20587;-75
2023/10/05 05:19:51;;;;;;;12.70;5.43;;;;;;;15.78;58.42;95835.38;5071114;28;20538;-76
2023/10/05 05:22:18;;;;;;;9.75;5.35;;;;;;;15.75;58.14;95825.19;5088049;28;20105;-76
2023/10/05 05:24:44;;;;;;;9.52;5.07;;;;;;;15.79;58.19;95843.25;5087860;28;20032;-76
2023/10/05 05:29:53;;;;;;;11.43;5.97;;;;;;;15.81;57.66;95834.47;5070730;28;20196;-77
2023/10/05 05:32:22;;;;;;;11.75;5.78;;;;;;;15.85;57.64;95843.44;5070151;28;20043;-76
2023/10/05 05:34:51;;;;;;;12.27;4.95;;;;;;;15.86;57.59;95847.75;5070012;28;20027;-77
2023/10/05 05:39:53;;;;;;;14.07;5.88;;;;;;;15.93;57.03;95839.97;5088235;28;20062;-76
2023/10/05 05:42:19;;;;;;;11.73;5.70;;;;;;;15.96;57.15;95848.63;5069288;28;20488;-76
2023/10/05 05:44:44;;;;;;;17.65;5.68;;;;;;;15.96;57.32;95848.63;5069843;28;20035;-74
2023/10/05 05:47:11;;;;;;;11.93;6.82;;;;;;;15.99;57.21;95856.78;5087131;28;20117;-74
2023/10/05 05:49:40;;;;;;;9.82;5.40;;;;;;;16.03;57.00;95862.22;5088112;28;20055;-74
2023/10/05 05:52:07;;;;;;;9.13;5.28;;;;;;;16.04;56.89;95856.22;5069548;28;20062;-76
2023/10/05 05:54:35;;;;;;;10.15;5.55;;;;;;;16.12;56.74;95862.31;5069175;28;20039;-77
2023/10/05 05:57:00;;;;;;;9.02;5.15;;;;;;;16.12;56.41;95859.53;5069622;28;20110;-75
2023/10/05 05:59:26;;;;;;;14.27;5.30;;;;;;;16.18;56.14;95869.59;5086751;28;20567;-75
2023/10/05 06:01:51;;;;;;;7.15;4.70;;;;;;;16.20;55.61;95861.59;5069568;28;20020;-74
2023/10/05 06:04:17;;;;;;;13.05;4.70;;;;;;;16.28;55.59;95872.44;5086873;28;20024;-75
2023/10/05 06:06:44;;;;;;;6.20;4.10;;;;;;;16.31;55.14;95877.09;5069649;28;20403;-75
2023/10/05 06:09:11;;;;;;;8.02;4.40;;;;;;;16.36;54.83;95879.28;5086963;28;20031;-74
2023/10/05 06:11:38;;;;;;;6.50;4.00;;;;;;;16.35;54.75;95875.72;5087313;28;20023;-73
2023/10/05 06:14:05;;;;;;;8.73;4.65;;;;;;;16.39;54.44;95876.34;5069210;28;20064;-75
2023/10/05 06:16:33;;;;;;;8.15;4.03;;;;;;;16.38;54.07;95872.03;5086371;28;20120;-73
2023/10/05 06:18:59;;;;;;;7.63;3.95;;;;;;;16.52;54.12;95883.88;5068890;28;20023;-74
2023/10/05 06:21:25;;;;;;;11.60;4.68;;;;;;;16.58;54.29;95882.81;5086464;28;20399;-74
2023/10/05 06:23:51;;;;;;;7.68;4.03;;;;;;;16.60;53.90;95874.03;5069028;28;20024;-75
2023/10/05 06:26:16;;;;;;;7.90;4.13;;;;;;;16.70;53.71;95887.53;5068289;28;20027;-75
2023/10/05 06:28:42;;;;;;;8.63;4.20;;;;;;;16.71;53.28;95875.19;5087308;28;20107;-75
2023/10/05 06:31:11;;;;;;;8.98;4.05;;;;;;;16.80;53.02;95876.47;5086766;28;20047;-76
2023/10/05 06:33:37;;;;;;;11.50;4.32;;;;;;;16.78;53.17;95867.84;5086612;28;20016;-76
2023/10/05 06:36:03;;;;;;;8.27;4.05;;;;;;;16.90;52.89;95876.06;5086972;28;20475;-76
2023/10/05 06:38:29;;;;;;;9.82;3.60;;;;;;;16.97;52.22;95875.00;5086781;28;20142;-75
2023/10/05 06:40:54;;;;;;;7.75;4.07;;;;;;;17.02;52.04;95879.97;5068666;28;20020;-76
2023/10/05 06:43:21;;;;;;;10.93;4.10;;;;;;;17.01;52.37;95872.88;5085902;28;20039;-75
2023/10/05 06:45:48;;;;;;;6.15;3.40;;;;;;;17.16;51.37;95881.44;5068733;28;20084;-76
2023/10/05 06:48:14;;;;;;;11.90;4.20;;;;;;;17.14;51.54;95881.88;5086094;28;20028;-75
2023/10/05 06:50:43;;;;;;;13.68;3.80;;;;;;;17.23;51.02;95878.38;5068101;28;20016;-74
2023/10/05 06:53:10;;;;;;;8.57;3.97;;;;;;;17.26;50.99;95883.00;5086500;28;20020;-73
2023/10/05 06:55:36;;;;;;;7.55;4.03;;;;;;;17.34;50.69;95872.38;5067495;28;20031;-75
2023/10/05 06:58:03;;;;;;;8.00;3.95;;;;;;;17.36;50.67;95878.25;5068114;28;20024;-73
2023/10/05 07:00:29;;;;;;;10.60;4.03;;;;;;;17.46;50.91;95882.59;5085686;28;20107;-76
2023/10/05 07:02:55;;;;;;;7.15;3.95;;;;;;;17.52;50.48;95891.88;5086692;28;20383;-75
2023/10/05 07:05:20;;;;;;;8.63;4.70;;;;;;;17.56;50.05;95880.63;5085793;28;20036;-75
2023/10/05 07:07:46;;;;;;;6.20;3.53;;;;;;;17.62;50.27;95879.56;5068447;28;20077;-75
2023/10/05 07:10:14;;;;;;;13.15;4.70;;;;;;;17.68;49.70;95883.28;5068043;28;20024;-74
2023/10/05 07:12:46;;;;;;;10.45;4.05;;;;;;;17.76;49.90;95878.97;5067419;28;20490;-74
2023/10/05 07:15:12;;;;;;;8.48;4.05;;;;;;;17.85;49.70;95883.03;5086186;28;20072;-74
2023/10/05 07:17:37;;;;;;;8.57;4.70;;;;;;;17.93;49.23;95884.25;5050619;28;20059;-73
2023/10/05 07:20:11;;;;;;;10.73;4.60;;;;;;;17.97;49.65;95887.66;5086084;28;20028;-75
2023/10/05 07:22:55;;;;;;;8.75;3.70;;;;;;;18.03;49.17;95872.69;5085637;28;20027;-74
2023/10/05 07:25:21;;;;;;;7.30;3.85;;;;;;;18.17;48.55;95881.63;5086143;28;20036;-81
2023/10/05 07:27:50;;;;;;;9.50;3.72;;;;;;;18.25;48.67;95882.88;5086280;28;20054;-81
2023/10/05 07:30:15;;;;;;;11.73;3.63;;;;;;;18.37;48.52;95881.16;5067162;28;20028;-76
2023/10/05 07:32:41;;;;;;;9.25;3.50;;;;;;;18.47;47.86;95883.47;5068167;28;20028;-76
2023/10/05 07:35:07;;;;;;;7.53;4.10;;;;;;;18.63;47.77;95884.38;5085199;28;20469;-76
2023/10/05 07:37:34;;;;;;;8.45;3.50;;;;;;;18.74;46.85;95877.09;5086570;28;20034;-76
2023/10/05 07:39:59;;;;;;;8.50;3.47;;;;;;;18.87;47.43;95881.69;5084939;28;20028;-76
2023/10/05 07:42:27;;;;;;;7.72;4.32;;;;;;;18.99;46.86;95884.31;5067876;28;20047;-76
2023/10/05 07:44:53;;;;;;;9.30;4.20;;;;;;;19.13;46.56;95887.66;5085603;28;20071;-76
2023/10/05 07:47:19;;;;;;;13.50;4.32;;;;;;;19.29;46.06;95885.28;5086193;28;20429;-75
2023/10/05 07:49:45;;;;;;;14.18;5.47;;;;;;;19.35;45.62;95882.63;5086239;28;20103;-76
2023/10/05 07:52:11;;;;;;;10.73;4.80;;;;;;;19.55;45.54;95882.81;5066947;28;20436;-76
2023/10/05 07:54:39;;;;;;;7.07;3.88;;;;;;;19.69;45.21;95886.97;5086708;28;20426;-76
2023/10/05 07:57:08;;;;;;;8.15;4.82;;;;;;;19.85;44.99;95883.00;5084663;28;20035;-76
2023/10/05 07:59:38;;;;;;;12.10;4.80;;;;;;;20.05;44.34;95876.78;5086284;28;20031;-76
2023/10/05 08:02:03;;;;;;;10.23;6.07;;;;;;;20.17;44.28;95870.19;5067128;28;20103;-76
2023/10/05 08:04:29;;;;;;;12.35;4.40;;;;;;;20.37;44.17;95875.91;5067075;28;20035;-76
2023/10/05 08:06:54;;;;;;;12.18;5.20;;;;;;;20.65;43.24;95875.69;5067288;28;20034;-75
2023/10/05 08:09:23;;;;;;;10.02;4.72;;;;;;;20.85;43.18;95870.19;5067036;28;20111;-76
2023/10/05 08:11:53;;;;;;;9.27;4.50;;;;;;;21.20;42.23;95869.47;5068112;28;20024;-76
2023/10/05 08:14:18;;;;;;;8.43;4.22;;;;;;;21.50;41.83;95858.25;5084798;28;20074;-77
2023/10/05 08:16:45;;;;;;;11.55;5.40;;;;;;;21.81;41.57;95866.84;5085861;28;20036;-76
2023/10/05 08:19:10;;;;;;;9.27;4.47;;;;;;;22.11;41.11;95861.88;5084952;28;20027;-77
2023/10/05 08:21:36;;;;;;;8.73;4.85;;;;;;;22.50;41.03;95867.94;5085347;28;20405;-76
2023/10/05 08:24:02;;;;;;;13.40;4.20;;;;;;;22.82;40.26;95864.41;5067257;28;20075;-76
2023/10/05 08:26:28;;;;;;;8.90;4.50;;;;;;;23.08;39.35;95865.19;5067091;28;20024;-76
2023/10/05 08:28:55;;;;;;;9.60;4.60;;;;;;;23.41;38.90;95858.28;5085402;28;20028;-76
2023/10/05 08:31:23;;;;;;;8.05;3.90;;;;;;;23.74;37.98;95852.91;5084660;28;20522;-77
2023/10/05 08:33:55;;;;;;;8.27;4.40;;;;;;;24.14;37.77;95858.69;5086187;28;20024;-78
2023/10/05 08:36:21;;;;;;;11.32;4.82;;;;;;;24.54;36.99;95857.56;5066656;28;20568;-77
2023/10/05 08:38:50;;;;;;;14.80;5.20;;;;;;;24.88;36.02;95855.56;5067269;28;20526;-76
2023/10/05 08:41:34;;;;;;;10.02;4.70;;;;;;;25.31;35.41;95861.75;5067426;28;20854;-76
2023/10/05 08:44:00;;;;;;;6.97;4.07;;;;;;;25.71;35.24;95856.81;5070881;28;20024;-77
2023/10/05 08:46:27;;;;;;;12.70;4.88;;;;;;;26.02;34.29;95857.78;5071167;28;20058;-78
2023/10/05 08:48:55;;;;;;;11.93;5.22;;;;;;;26.35;33.58;95854.06;5088341;28;20031;-76
2023/10/05 08:51:24;;;;;;;10.30;5.63;;;;;;;26.65;33.33;95859.81;5071229;28;20028;-77
2023/10/05 08:53:54;;;;;;;10.82;5.28;;;;;;;26.97;32.79;95858.06;5088358;28;20028;-78
2023/10/05 08:56:20;;;;;;;10.63;4.93;;;;;;;27.33;32.31;95849.59;5070430;28;20032;-76
2023/10/05 08:58:48;;;;;;;11.98;5.78;;;;;;;27.77;31.90;95845.59;5070361;28;20414;-78
2023/10/05 09:01:25;;;;;;;10.27;5.75;;;;;;;28.27;31.02;95838.59;5087854;28;20111;-78
2023/10/05 09:03:54;;;;;;;11.45;5.13;;;;;;;28.83;30.46;95851.97;5070954;28;20028;-77
2023/10/05 09:06:26;;;;;;;11.55;5.68;;;;;;;29.32;29.86;95850.97;5069767;28;20020;-77
2023/10/05 09:09:14;;;;;;;11.40;5.07;;;;;;;29.85;28.68;95839.75;5088990;28;20016;-78
2023/10/05 09:11:39;;;;;;;7.35;5.10;;;;;;;29.99;28.24;95846.19;5072897;28;20046;-77
2023/10/05 09:14:17;;;;;;;10.00;4.75;;;;;;;30.67;27.45;95847.09;5087649;28;20036;-76
2023/10/05 09:16:47;;;;;;;12.43;5.50;;;;;;;31.40;26.27;95836.91;5087357;28;20043;-76
2023/10/05 09:19:17;;;;;;;7.68;4.50;;;;;;;32.19;25.24;95827.06;5069514;28;20027;-77
2023/10/05 09:22:33;;;;;;;12.23;5.95;;;;;;;33.12;24.00;95831.03;5071085;28;20386;-78
2023/10/05 09:24:33;;;;;;;9.68;5.60;;;;;;;33.43;23.75;95829.72;5077464;28;20067;-77
2023/10/05 09:27:12;;;;;;;8.88;5.15;;;;;;;34.08;22.96;95823.63;5087971;28;20103;-76
2023/10/05 09:29:39;;;;;;;12.27;5.05;;;;;;;35.01;21.79;95828.41;5072522;28;20115;-76
2023/10/05 09:32:08;;;;;;;9.10;4.97;;;;;;;35.67;21.22;95820.50;5069341;28;20081;-78
2023/10/05 09:34:34;;;;;;;8.07;5.05;;;;;;;36.40;20.60;95829.53;5071063;28;20474;-77
2023/10/05 09:37:06;;;;;;;7.82;4.97;;;;;;;37.11;19.66;95825.25;5086327;28;20028;-77
2023/10/05 09:39:35;;;;;;;;;;;;;;;37.58;19.00;95821.09;5087795;28;20124;-77
2023/10/05 09:42:02;;;;;;;13.65;5.90;;;;;;;38.07;18.56;95813.34;5069992;28;20359;-77
2023/10/05 09:44:31;;;;;;;13.75;6.25;;;;;;;37.78;18.58;95813.28;5087377;28;20092;-76
2023/10/05 09:46:59;;;;;;;10.80;5.65;;;;;;;37.58;18.56;95815.34;5088209;28;20050;-77
2023/10/05 09:49:27;;;;;;;7.85;4.72;;;;;;;38.19;18.05;95811.38;5086863;28;20511;-76
2023/10/05 09:51:54;;;;;;;10.13;4.70;;;;;;;38.83;17.67;95802.50;5069996;28;20028;-77
2023/10/05 09:54:25;;;;;;;11.43;4.93;;;;;;;39.47;17.13;95802.00;5068279;28;20055;-77
2023/10/05 09:56:51;;;;;;;10.38;5.78;;;;;;;39.78;16.63;95807.78;5070177;28;20070;-77
2023/10/05 09:59:18;;;;;;;11.80;5.22;;;;;;;40.20;17.46;95803.41;5069353;28;20125;-74
2023/10/05 10:01:47;;;;;;;9.65;4.88;;;;;;;40.25;17.67;95797.31;5068492;28;20028;-75
2023/10/05 10:04:28;;;;;;;8.10;5.43;;;;;;;40.23;20.09;95793.56;5069511;28;20430;-75
2023/10/05 10:06:54;;;;;;;9.93;5.30;;;;;;;40.64;19.03;95781.84;5070658;28;20169;-76
2023/10/05 10:09:26;;;;;;;7.50;4.55;;;;;;;41.11;18.36;95786.38;5069360;28;20122;-76
2023/10/05 10:11:52;;;;;;;12.40;5.25;;;;;;;41.37;18.31;95784.44;5069808;28;20028;-80
2023/10/05 10:14:22;;;;;;;7.93;4.90;;;;;;;41.75;17.70;95785.31;5067515;28;20399;-80
2023/10/05 10:16:53;;;;;;;11.13;5.32;;;;;;;41.88;17.07;95786.81;5086956;28;20042;-79
2023/10/05 10:19:23;;;;;;;11.43;4.93;;;;;;;41.84;16.80;95787.31;5085509;28;20072;-77
2023/10/05 10:22:11;;;;;;;8.80;5.68;;;;;;;42.07;16.72;95777.84;5087782;28;20016;-77
2023/10/05 10:24:37;;;;;;;8.27;5.40;;;;;;;42.40;16.73;95776.91;5086010;28;20093;-76
2023/10/05 10:27:11;;;;;;;11.27;6.15;;;;;;;42.55;16.92;95764.00;5086639;28;20020;-77
2023/10/05 10:29:46;;;;;;;10.13;5.45;;;;;;;42.77;14.69;95767.44;5085990;28;20024;-76
2023/10/05 10:32:18;;;;;;;9.88;5.05;;;;;;;43.22;16.17;95762.00;5086286;28;20070;-76
2023/10/05 10:34:50;;;;;;;10.60;6.03;;;;;;;43.46;16.01;95763.34;5087604;28;20039;-77
2023/10/05 10:37:44;;;;;;;12.23;4.97;;;;;;;43.70;14.27;95748.66;5086813;28;20028;-77
2023/10/05 10:42:54;;;;;;;9.23;5.93;;;;;;;43.82;15.05;95752.25;5086402;28;20482;-77
2023/10/05 10:45:28;;;;;;;6.75;5.38;;;;;;;44.13;14.88;95750.91;5086225;28;20031;-77
2023/10/05 10:47:56;;;;;;;11.23;6.72;;;;;;;44.56;15.45;95742.19;5087282;28;20020;-76
2023/10/05 10:50:23;;;;;;;8.88;5.35;;;;;;;44.65;14.20;95729.63;5085866;28;20385;-77
2023/10/05 10:52:55;;;;;;;12.10;5.22;;;;;;;44.85;14.04;95723.28;5087014;28;20577;-76
2023/10/05 10:55:22;;;;;;;13.70;6.13;;;;;;;44.79;13.77;95720.84;5086968;28;20024;-77
2023/10/05 10:57:52;;;;;;;9.27;4.93;;;;;;;45.08;13.52;95717.19;5086004;28;20027;-76
2023/10/05 11:03:12;;;;;;;10.55;4.90;;;;;;;44.99;12.83;95709.50;5086163;28;20105;-76
2023/10/05 11:05:42;;;;;;;9.45;5.53;;;;;;;44.93;14.27;95706.28;5086517;28;20028;-76
2023/10/05 11:08:09;;;;;;;7.13;5.35;;;;;;;45.03;14.22;95701.00;5086385;28;20039;-77
2023/10/05 11:10:34;;;;;;;9.20;4.45;;;;;;;45.26;13.19;95694.81;5086321;28;20052;-77
2023/10/05 11:13:19;;;;;;;9.07;4.47;;;;;;;44.95;14.37;95686.81;5086701;28;20127;-77
2023/10/05 11:16:01;;;;;;;7.97;4.60;;;;;;;44.80;14.02;95683.94;5085352;28;20048;-77
2023/10/05 11:18:39;;;;;;;7.43;4.70;;;;;;;44.91;13.51;95680.09;5087437;28;20376;-76
2023/10/05 11:21:05;;;;;;;10.55;5.05;;;;;;;44.53;14.26;95682.63;5086340;28;20024;-76
2023/10/05 11:23:42;;;;;;;12.07;5.25;;;;;;;44.13;13.95;95684.28;5085896;28;20457;-76
2023/10/05 11:26:17;;;;;;;11.25;5.10;;;;;;;43.39;15.24;95679.75;5086825;28;20024;-76
2023/10/05 11:28:49;;;;;;;10.55;5.50;;;;;;;42.12;15.91;95669.09;5085789;28;20447;-76
2023/10/05 11:31:21;;;;;;;10.55;5.35;;;;;;;40.98;17.14;95662.28;5087208;28;20047;-76
2023/10/05 11:33:47;;;;;;;11.07;5.22;;;;;;;40.06;17.47;95656.41;5085695;28;20052;-75
2023/10/05 11:36:21;;;;;;;10.23;5.75;;;;;;;39.38;18.55;95653.25;5086048;28;20561;-75
2023/10/05 11:38:57;;;;;;;10.38;5.05;;;;;;;38.68;18.07;95650.56;5085951;28;20052;-75
2023/10/05 11:41:28;;;;;;;12.10;5.35;;;;;;;37.76;19.24;95654.59;5085748;28;20028;-75
2023/10/05 11:43:55;;;;;;;9.25;5.00;;;;;;;36.95;20.14;95644.94;5086245;28;20504;-76
2023/10/05 11:46:24;;;;;;;10.80;5.72;;;;;;;36.44;20.68;95645.91;5085310;28;20559;-76
2023/10/05 11:48:56;;;;;;;10.15;5.15;;;;;;;36.01;21.28;95642.47;5086240;28;20561;-76
2023/10/05 11:51:42;;;;;;;8.90;4.95;;;;;;;35.27;21.12;95629.94;5085939;28;20028;-77
2023/10/05 11:54:19;;;;;;;14.90;5.40;;;;;;;34.82;21.65;95640.41;5085701;28;20477;-76
2023/10/05 11:56:46;;;;;;;14.80;6.30;;;;;;;34.36;22.01;95639.97;5085770;28;20032;-76
2023/10/05 11:59:12;;;;;;;10.65;5.28;;;;;;;33.93;23.13;95639.03;5084893;28;20452;-76
2023/10/05 12:01:40;;;;;;;10.45;5.40;;;;;;;33.59;22.68;95627.38;5086231;28;20016;-77